Portada
METAR-TAF:

METAR-TAF

Aeroports :

Tahití, Polinèsia Francesa

latitud: 17-33S, longitud: 149-37W, altitud: 2 m

Observació

L'informe es va fer fa 36 minuts, a les 22:30 UTC
Vent 6 kt del Oest, variant entre Sud-Oest i Nord-Oest
Temperatura 28°C
Humitat 62%
Pressió 1015 hPa
Visibilitat 10 km o més
Escasses núvols a una alçada de 2600 ft
Núvols disperses a una alçada de 6000 ft

METAR: NTAA 152230Z 27006KT 230V310 9999 FEW026 SCT060 28/20 Q1015 NOSIG

Hora: 13:06 (23:06 UTC)

Pronòstic

L'informe es va fer fa 6 hores i 6 minuts, a les 17:00 UTC
Pronòstic vàlid del 15 a les 18 UTC al 16 a les 24 UTC
Vent 2 kt amb direcció variable
Visibilitat 10 km o més
Escasses núvols a una alçada de 2300 ft
Núvols disperses a una alçada de 6000 ft
Probabilitat 30% :
Temporalment
l' 15 a les 21 UTC al 16 a les 03 UTC
Vent 12 kt del Sud/Sud-Oest

TAF: NTAA 151700Z 1518/1624 VRB02KT 9999 FEW023 SCT060 PROB30 TEMPO 1521/1603 20012KT

Observacions i pronòstics meteorològics de més de 4000 aeroports (METAR i TAF).

Les estacions disponibles són els punts grocs i vermells al mapa.

Posi el ratolí al punt desitjat per veure el nom de l'estació.

Feu clic per veure les observacions i els pronòstics meteorològics.

Per canviar el mapa: feu clic els botons verds amb una creu de color negre per apropar; al botó verd amb un guió per allunyar la imatge; o en les fletxes verdes per a mapes adjacents.


METAR-TAF: